createdAt,value
2023-03-02T00:02:34.040Z,2.64
2023-03-02T00:06:34.502Z,2.69
2023-03-02T00:10:34.364Z,2.36
2023-03-02T00:14:34.551Z,2.44
2023-03-02T00:18:34.791Z,2.59
2023-03-02T00:22:34.981Z,2.74
2023-03-02T00:26:35.192Z,2.61
2023-03-02T00:30:35.423Z,2.82
2023-03-02T00:34:35.620Z,3.10
2023-03-02T00:38:35.785Z,2.51
2023-03-02T00:42:35.977Z,2.89
2023-03-02T00:46:36.389Z,2.45
2023-03-02T00:50:36.380Z,2.72
2023-03-02T00:54:36.591Z,2.87
2023-03-02T00:58:36.846Z,2.54
2023-03-02T01:02:37.160Z,2.01
2023-03-02T01:06:37.261Z,2.22
2023-03-02T01:10:37.451Z,2.34
2023-03-02T01:14:37.408Z,2.30
2023-03-02T01:18:37.365Z,2.82
2023-03-02T01:22:37.306Z,2.92
2023-03-02T01:26:37.286Z,2.61
2023-03-02T01:30:37.281Z,2.09
2023-03-02T01:34:37.269Z,2.66
2023-03-02T01:38:37.328Z,2.46
2023-03-02T01:42:37.149Z,2.99
2023-03-02T01:46:37.118Z,2.88
2023-03-02T01:50:37.165Z,2.54
2023-03-02T01:54:37.132Z,2.60
2023-03-02T01:58:37.059Z,2.70
2023-03-02T02:02:37.125Z,2.43
2023-03-02T02:06:36.992Z,2.33
2023-03-02T02:10:36.978Z,2.30
2023-03-02T02:14:36.945Z,2.10
2023-03-02T02:18:36.894Z,2.83
2023-03-02T02:22:36.889Z,2.28
2023-03-02T02:26:36.877Z,2.40
2023-03-02T02:30:36.900Z,2.17
2023-03-02T02:34:37.072Z,2.60
2023-03-02T02:38:37.308Z,2.12
2023-03-02T02:42:37.497Z,2.18
2023-03-02T02:46:37.560Z,2.41
2023-03-02T02:50:37.388Z,2.39
2023-03-02T02:54:37.421Z,2.90
2023-03-02T02:58:37.333Z,1.83
2023-03-02T03:02:37.249Z,2.46
2023-03-02T03:06:37.371Z,1.69
2023-03-02T03:10:37.208Z,2.43
2023-03-02T03:14:37.198Z,2.13
2023-03-02T03:18:37.150Z,2.66
2023-03-02T03:22:37.092Z,2.38
2023-03-02T03:26:37.030Z,2.25
2023-03-02T03:30:37.056Z,2.28
2023-03-02T03:34:37.009Z,2.13
2023-03-02T03:38:36.978Z,2.51
2023-03-02T03:42:36.923Z,2.37
2023-03-02T03:46:37.156Z,2.95
2023-03-02T03:50:36.856Z,2.76
2023-03-02T03:54:36.852Z,2.62
2023-03-02T03:58:36.862Z,2.12
2023-03-02T04:02:36.760Z,2.14
2023-03-02T04:06:36.708Z,2.25
2023-03-02T04:10:36.676Z,2.52
2023-03-02T04:14:36.653Z,1.83
2023-03-02T04:18:36.581Z,2.39
2023-03-02T04:22:36.598Z,2.10
2023-03-02T04:26:36.518Z,2.20
2023-03-02T04:30:36.516Z,2.36
2023-03-02T04:34:36.520Z,2.87
2023-03-02T04:38:36.409Z,2.14
2023-03-02T04:42:36.406Z,2.06
2023-03-02T04:46:36.713Z,2.26
2023-03-02T04:50:36.355Z,2.04
2023-03-02T04:54:36.372Z,2.45
2023-03-02T04:58:36.246Z,2.41
2023-03-02T05:02:36.311Z,2.31
2023-03-02T05:06:36.197Z,3.58
2023-03-02T05:10:36.183Z,4.06
2023-03-02T05:14:36.155Z,4.88
2023-03-02T05:18:36.073Z,5.57
2023-03-02T05:22:36.101Z,5.81
2023-03-02T05:26:36.019Z,5.22
2023-03-02T05:30:36.033Z,5.78
2023-03-02T05:34:35.975Z,4.68
2023-03-02T05:38:35.925Z,4.85
2023-03-02T05:42:35.920Z,4.55
2023-03-02T05:46:36.201Z,4.12
2023-03-02T05:50:36.142Z,4.36
2023-03-02T05:54:35.756Z,4.42
2023-03-02T05:58:35.740Z,4.23
2023-03-02T06:02:35.718Z,4.08
2023-03-02T06:06:36.024Z,4.04
2023-03-02T06:10:35.641Z,4.29
2023-03-02T06:14:35.623Z,3.67
2023-03-02T06:18:35.579Z,4.14
2023-03-02T06:22:35.574Z,3.69
2023-03-02T06:26:35.521Z,3.76
2023-03-02T06:30:35.668Z,4.53
2023-03-02T06:34:36.286Z,4.64
2023-03-02T06:38:35.423Z,4.06
2023-03-02T06:42:35.611Z,6.43
2023-03-02T06:46:35.599Z,11.19
2023-03-02T06:50:35.598Z,9.67
2023-03-02T06:54:35.701Z,9.57
2023-03-02T06:58:35.483Z,9.27
2023-03-02T07:02:35.447Z,9.03
2023-03-02T07:06:35.509Z,8.14
2023-03-02T07:10:35.398Z,8.22
2023-03-02T07:14:35.403Z,7.81
2023-03-02T07:18:35.694Z,7.78
2023-03-02T07:22:35.299Z,7.11
2023-03-02T07:26:35.279Z,7.37
2023-03-02T07:30:35.238Z,8.45
2023-03-02T07:34:35.190Z,7.77
2023-03-02T07:38:35.113Z,19.18
2023-03-02T07:42:35.092Z,15.93
2023-03-02T07:46:35.145Z,13.99
2023-03-02T07:50:35.200Z,12.29
2023-03-02T07:54:35.344Z,10.96
2023-03-02T07:58:35.462Z,10.48
2023-03-02T08:02:35.426Z,9.97
2023-03-02T08:06:35.452Z,10.16
2023-03-02T08:10:36.238Z,8.83
2023-03-02T08:14:35.399Z,8.85
2023-03-02T08:18:35.330Z,7.80
2023-03-02T08:22:35.301Z,8.51
2023-03-02T08:26:35.288Z,9.79
2023-03-02T08:30:35.206Z,13.66
2023-03-02T08:34:35.244Z,13.03
2023-03-02T08:38:35.262Z,16.29
2023-03-02T08:42:35.120Z,17.76
2023-03-02T08:46:35.173Z,15.95
2023-03-02T08:50:35.384Z,12.93
2023-03-02T08:54:35.505Z,13.15
2023-03-02T08:58:35.601Z,13.29
2023-03-02T09:02:35.682Z,11.30
2023-03-02T09:06:36.226Z,10.74
2023-03-02T09:10:35.816Z,9.36
2023-03-02T09:14:35.907Z,8.71
2023-03-02T09:18:35.939Z,8.54
2023-03-02T09:22:35.990Z,8.48
2023-03-02T09:26:35.925Z,8.82
2023-03-02T09:30:36.043Z,7.51
2023-03-02T09:34:35.977Z,7.64
2023-03-02T09:38:36.001Z,6.62
2023-03-02T09:42:43.938Z,6.79
2023-03-02T09:46:37.047Z,7.14
2023-03-02T09:50:36.050Z,7.86
2023-03-02T09:54:36.020Z,7.57
2023-03-02T09:58:35.928Z,7.24
2023-03-02T10:02:35.994Z,6.06
2023-03-02T10:06:35.869Z,6.29
2023-03-02T10:10:35.843Z,5.91
2023-03-02T10:14:36.056Z,5.78
2023-03-02T10:18:36.005Z,5.49
2023-03-02T10:22:35.959Z,5.54
2023-03-02T10:26:36.073Z,5.87
2023-03-02T10:30:35.975Z,5.65
2023-03-02T10:34:35.899Z,5.29
2023-03-02T10:38:35.870Z,5.18
2023-03-02T10:42:35.812Z,6.18
2023-03-02T10:46:36.172Z,5.34
2023-03-02T10:50:35.734Z,5.82
2023-03-02T10:54:35.694Z,5.21
2023-03-02T10:58:35.647Z,5.89
2023-03-02T11:02:35.619Z,4.81
2023-03-02T11:06:35.671Z,5.71
2023-03-02T11:10:35.529Z,5.16
2023-03-02T11:14:35.594Z,4.47
2023-03-02T11:18:35.714Z,4.57
2023-03-02T11:22:35.790Z,4.29
2023-03-02T11:26:35.994Z,4.08
2023-03-02T11:30:36.132Z,3.82
2023-03-02T11:34:36.290Z,3.36
2023-03-02T11:38:36.532Z,3.97
2023-03-02T11:42:36.669Z,3.68
2023-03-02T11:46:36.769Z,3.38
2023-03-02T11:50:36.847Z,3.37
2023-03-02T11:54:37.054Z,3.17
2023-03-02T11:58:37.190Z,3.89
2023-03-02T12:02:37.374Z,2.95
2023-03-02T12:06:37.420Z,3.19
2023-03-02T12:10:37.771Z,3.16
2023-03-02T12:14:37.689Z,3.79
2023-03-02T12:18:37.747Z,3.25
2023-03-02T12:22:38.403Z,3.79
2023-03-02T12:26:38.078Z,4.98
2023-03-02T12:30:38.174Z,4.27
2023-03-02T12:34:38.441Z,6.12
2023-03-02T12:38:38.518Z,6.42
2023-03-02T12:42:38.576Z,5.67
2023-03-02T12:46:38.698Z,7.67
2023-03-02T12:50:38.785Z,6.25
2023-03-02T12:54:38.912Z,6.14
2023-03-02T12:58:38.971Z,4.44
2023-03-02T13:02:39.095Z,4.05
2023-03-02T13:06:39.137Z,4.69
2023-03-02T13:10:39.291Z,4.78
2023-03-02T13:14:39.328Z,4.79
2023-03-02T13:18:39.395Z,4.19
2023-03-02T13:22:39.380Z,3.99
2023-03-02T13:26:39.491Z,4.25
2023-03-02T13:30:39.770Z,3.79
2023-03-02T13:34:39.862Z,3.59
2023-03-02T13:38:39.925Z,3.85
2023-03-02T13:42:40.048Z,3.60
2023-03-02T13:46:42.203Z,3.69
2023-03-02T13:50:40.140Z,2.65
2023-03-02T13:54:40.074Z,2.85
2023-03-02T13:58:40.060Z,2.90
2023-03-02T14:02:40.021Z,2.23
2023-03-02T14:06:40.005Z,2.61
2023-03-02T14:10:39.986Z,2.57
2023-03-02T14:14:39.978Z,2.53
2023-03-02T14:18:39.890Z,2.50
2023-03-02T14:22:39.850Z,2.54
2023-03-02T14:26:39.811Z,2.25
2023-03-02T14:30:39.818Z,2.22
2023-03-02T14:34:39.779Z,2.24
2023-03-02T14:38:39.711Z,2.55
2023-03-02T14:42:39.689Z,2.09
2023-03-02T14:46:39.731Z,1.62
2023-03-02T14:50:39.684Z,2.40
2023-03-02T14:54:39.720Z,2.27
2023-03-02T14:58:39.803Z,1.72
2023-03-02T15:02:40.117Z,2.13
2023-03-02T15:06:39.901Z,2.09
2023-03-02T15:10:40.083Z,2.15
2023-03-02T15:14:40.218Z,1.88
2023-03-02T15:18:40.397Z,2.21
2023-03-02T15:22:40.372Z,2.37
2023-03-02T15:26:40.345Z,1.69
2023-03-02T15:30:40.324Z,2.21
2023-03-02T15:34:40.298Z,2.01
2023-03-02T15:38:40.219Z,2.32
2023-03-02T15:42:40.200Z,2.02
2023-03-02T15:46:40.202Z,1.68
2023-03-02T15:50:40.090Z,2.07
2023-03-02T15:54:40.115Z,1.73
2023-03-02T15:58:40.047Z,1.60
2023-03-02T16:02:40.029Z,1.71
2023-03-02T16:06:39.966Z,1.98
2023-03-02T16:10:39.972Z,2.05
2023-03-02T16:14:39.923Z,1.89
2023-03-02T16:18:39.905Z,1.76
2023-03-02T16:22:39.879Z,1.70
2023-03-02T16:26:39.837Z,1.76
2023-03-02T16:30:39.866Z,1.70
2023-03-02T16:34:39.756Z,2.12
2023-03-02T16:38:39.841Z,1.62
2023-03-02T16:42:39.906Z,1.69
2023-03-02T16:46:40.077Z,1.39
2023-03-02T16:50:40.136Z,1.54
2023-03-02T16:54:40.272Z,1.82
2023-03-02T16:58:40.459Z,1.58
2023-03-02T17:02:40.597Z,2.20
2023-03-02T17:06:43.537Z,1.50
2023-03-02T17:10:41.743Z,1.68
2023-03-02T17:14:40.834Z,1.72
2023-03-02T17:18:40.613Z,2.04
2023-03-02T17:22:40.793Z,1.30
2023-03-02T17:26:41.046Z,2.19
2023-03-02T17:30:41.152Z,1.88
2023-03-02T17:34:41.343Z,1.55
2023-03-02T17:38:41.458Z,2.05
2023-03-02T17:42:41.647Z,1.99
2023-03-02T17:46:41.967Z,1.40
2023-03-02T17:50:41.964Z,1.76
2023-03-02T17:54:42.184Z,1.71
2023-03-02T17:58:45.377Z,1.95
2023-03-02T18:02:42.294Z,1.55
2023-03-02T18:06:42.280Z,1.85
2023-03-02T18:10:42.257Z,1.91
2023-03-02T18:14:42.196Z,1.75
2023-03-02T18:18:42.160Z,1.84
2023-03-02T18:22:42.137Z,1.57
2023-03-02T18:26:42.098Z,1.83
2023-03-02T18:30:42.043Z,1.50
2023-03-02T18:34:42.027Z,1.60
2023-03-02T18:38:42.078Z,1.81
2023-03-02T18:42:42.082Z,1.59
2023-03-02T18:46:42.113Z,1.44
2023-03-02T18:50:42.023Z,1.96
2023-03-02T18:54:41.976Z,1.61
2023-03-02T18:58:41.966Z,1.45
2023-03-02T19:02:41.908Z,2.21
2023-03-02T19:06:41.871Z,2.07
2023-03-02T19:10:41.785Z,2.82
2023-03-02T19:14:41.789Z,1.63
2023-03-02T19:18:41.841Z,3.81
2023-03-02T19:22:41.768Z,2.07
2023-03-02T19:26:41.795Z,2.38
2023-03-02T19:30:41.919Z,2.42
2023-03-02T19:34:41.903Z,2.25
2023-03-02T19:38:41.980Z,2.24
2023-03-02T19:42:42.034Z,2.25
2023-03-02T19:46:42.040Z,2.41
2023-03-02T19:50:42.141Z,2.40
2023-03-02T19:54:42.200Z,2.23
2023-03-02T19:58:42.300Z,2.51
2023-03-02T20:02:42.337Z,2.17
2023-03-02T20:06:42.358Z,2.06
2023-03-02T20:10:42.399Z,2.00
2023-03-02T20:14:42.410Z,2.25
2023-03-02T20:18:42.452Z,2.41
2023-03-02T20:22:42.394Z,2.21
2023-03-02T20:26:42.466Z,2.12
2023-03-02T20:30:42.445Z,1.94
2023-03-02T20:34:42.455Z,2.24
2023-03-02T20:38:42.476Z,2.34
2023-03-02T20:42:42.506Z,1.77
2023-03-02T20:46:42.446Z,2.00
2023-03-02T20:50:42.468Z,2.12
2023-03-02T20:54:42.497Z,1.92
2023-03-02T20:58:42.509Z,2.05
2023-03-02T21:02:42.573Z,1.92
2023-03-02T21:06:42.562Z,2.20
2023-03-02T21:10:42.582Z,2.25
2023-03-02T21:14:42.618Z,2.22
2023-03-02T21:18:42.677Z,2.08
2023-03-02T21:22:42.709Z,2.00
2023-03-02T21:26:42.814Z,2.17
2023-03-02T21:30:42.904Z,2.09
2023-03-02T21:34:42.924Z,1.51
2023-03-02T21:38:43.008Z,1.94
2023-03-02T21:42:43.105Z,2.02
2023-03-02T21:46:43.205Z,1.77
2023-03-02T21:50:43.275Z,2.32
2023-03-02T21:54:43.336Z,1.92
2023-03-02T21:58:43.413Z,2.51
2023-03-02T22:02:43.489Z,2.12
2023-03-02T22:06:43.577Z,2.01
2023-03-02T22:10:43.698Z,2.28
2023-03-02T22:14:43.803Z,1.71
2023-03-02T22:18:43.879Z,2.05
2023-03-02T22:22:43.983Z,1.89
2023-03-02T22:26:44.113Z,1.60
2023-03-02T22:30:44.267Z,2.03
2023-03-02T22:34:44.390Z,2.08
2023-03-02T22:38:44.525Z,2.05
2023-03-02T22:42:44.595Z,2.28
2023-03-02T22:46:44.837Z,1.96
2023-03-02T22:50:44.908Z,1.69
2023-03-02T22:54:45.046Z,1.81
2023-03-02T22:58:45.167Z,1.89
2023-03-02T23:02:45.354Z,1.89
2023-03-02T23:06:45.535Z,2.31
2023-03-02T23:10:45.680Z,1.90
2023-03-02T23:14:46.087Z,1.92
2023-03-02T23:18:46.035Z,1.77
2023-03-02T23:22:46.178Z,1.94
2023-03-02T23:26:46.367Z,1.80
2023-03-02T23:30:46.531Z,1.59
2023-03-02T23:34:46.698Z,1.80
2023-03-02T23:38:46.889Z,1.66
2023-03-02T23:42:47.010Z,1.94
2023-03-02T23:46:47.578Z,1.85
2023-03-02T23:50:47.424Z,1.59
2023-03-02T23:54:47.564Z,1.95
2023-03-02T23:58:47.763Z,1.78
